createdAt,value
2016-11-10T00:00:56.876Z,0
2016-11-10T00:02:09.898Z,0
2016-11-10T00:03:25.551Z,0
2016-11-10T00:04:42.302Z,0
2016-11-10T00:05:57.092Z,0
2016-11-10T00:07:13.132Z,0
2016-11-10T00:08:29.367Z,0
2016-11-10T00:09:43.788Z,0
2016-11-10T00:11:00.030Z,0
2016-11-10T00:12:15.823Z,0
2016-11-10T00:13:29.871Z,0
2016-11-10T00:14:44.486Z,0
2016-11-10T00:16:00.515Z,0
2016-11-10T00:17:15.084Z,0
2016-11-10T00:18:30.851Z,0
2016-11-10T00:19:46.932Z,0
2016-11-10T00:21:00.477Z,0
2016-11-10T00:22:16.131Z,0
2016-11-10T00:23:32.331Z,0
2016-11-10T00:24:47.268Z,0
2016-11-10T00:26:03.685Z,0
2016-11-10T00:27:19.763Z,0
2016-11-10T00:28:35.466Z,0
2016-11-10T00:29:48.766Z,0
2016-11-10T00:31:04.497Z,0
2016-11-10T00:32:20.612Z,0
2016-11-10T00:33:36.165Z,0
2016-11-10T00:34:49.312Z,0
2016-11-10T00:36:04.993Z,0
2016-11-10T00:37:21.203Z,0
2016-11-10T00:38:37.412Z,0
2016-11-10T00:39:53.457Z,0
2016-11-10T00:41:08.199Z,0
2016-11-10T00:42:22.269Z,0
2016-11-10T00:43:38.496Z,0
2016-11-10T00:44:52.737Z,0
2016-11-10T00:46:05.946Z,0
2016-11-10T00:47:20.727Z,0
2016-11-10T00:48:36.986Z,0
2016-11-10T00:49:51.185Z,0
2016-11-10T00:51:04.417Z,0
2016-11-10T00:52:18.456Z,0
2016-11-10T00:53:33.237Z,0
2016-11-10T00:54:50.026Z,0
2016-11-10T00:56:06.151Z,0
2016-11-10T00:57:22.196Z,0
2016-11-10T00:58:36.227Z,0
2016-11-10T00:59:50.854Z,0
2016-11-10T01:01:05.358Z,0
2016-11-10T01:02:21.860Z,0
2016-11-10T01:03:37.753Z,0
2016-11-10T01:04:53.062Z,0
2016-11-10T01:06:09.277Z,0
2016-11-10T01:07:25.101Z,0
2016-11-10T01:08:41.663Z,0
2016-11-10T01:09:57.859Z,0
2016-11-10T01:11:13.993Z,0
2016-11-10T01:12:28.001Z,0
2016-11-10T01:13:42.906Z,0
2016-11-10T01:14:59.496Z,0
2016-11-10T01:16:14.150Z,0
2016-11-10T01:17:30.011Z,0
2016-11-10T01:18:43.116Z,0
2016-11-10T01:19:59.135Z,0
2016-11-10T01:21:15.134Z,0
2016-11-10T01:22:31.078Z,0
2016-11-10T01:23:47.286Z,0
2016-11-10T01:25:03.355Z,0
2016-11-10T01:26:19.686Z,0
2016-11-10T01:27:36.204Z,0
2016-11-10T01:28:50.958Z,0
2016-11-10T01:30:05.791Z,0
2016-11-10T01:31:20.351Z,0
2016-11-10T01:32:36.399Z,0
2016-11-10T01:33:51.841Z,0
2016-11-10T01:35:06.964Z,0
2016-11-10T01:36:23.436Z,0
2016-11-10T01:37:37.882Z,0
2016-11-10T01:38:52.238Z,0
2016-11-10T01:40:06.422Z,0
2016-11-10T01:41:22.109Z,0
2016-11-10T01:42:33.815Z,0
2016-11-10T01:43:49.894Z,0
2016-11-10T01:45:05.762Z,0
2016-11-10T01:46:21.944Z,0
2016-11-10T01:47:36.758Z,0
2016-11-10T01:48:51.334Z,0
2016-11-10T01:50:05.936Z,0
2016-11-10T01:51:18.984Z,0
2016-11-10T01:52:33.371Z,0
2016-11-10T01:53:49.001Z,0
2016-11-10T01:55:05.222Z,0
2016-11-10T01:56:20.336Z,0
2016-11-10T01:57:36.718Z,0
2016-11-10T01:58:51.092Z,0
2016-11-10T02:00:07.328Z,0
2016-11-10T02:01:21.765Z,0
2016-11-10T02:02:34.923Z,0
2016-11-10T02:03:49.505Z,0
2016-11-10T02:05:05.679Z,0
2016-11-10T02:06:19.066Z,0
2016-11-10T02:07:34.744Z,0
2016-11-10T02:08:49.295Z,0
2016-11-10T02:10:03.873Z,0
2016-11-10T02:11:20.115Z,0
2016-11-10T02:12:33.225Z,0
2016-11-10T02:13:49.319Z,0
2016-11-10T02:15:05.717Z,0
2016-11-10T02:16:19.920Z,0
2016-11-10T02:17:35.112Z,0
2016-11-10T02:18:50.568Z,0
2016-11-10T02:20:03.879Z,0
2016-11-10T02:21:18.426Z,0
2016-11-10T02:22:34.600Z,0
2016-11-10T02:23:50.826Z,0
2016-11-10T02:25:05.051Z,0
2016-11-10T02:26:21.104Z,0
2016-11-10T02:27:37.091Z,0
2016-11-10T02:28:51.302Z,0
2016-11-10T02:30:05.711Z,0
2016-11-10T02:31:21.710Z,0
2016-11-10T02:32:34.480Z,0
2016-11-10T02:33:51.024Z,0
2016-11-10T02:35:05.256Z,0
2016-11-10T02:36:20.994Z,0
2016-11-10T02:37:34.107Z,0
2016-11-10T02:38:48.660Z,0
2016-11-10T02:40:03.254Z,0
2016-11-10T02:41:17.651Z,0
2016-11-10T02:42:31.711Z,0
2016-11-10T02:43:45.560Z,0
2016-11-10T02:45:01.200Z,0
2016-11-10T02:46:14.028Z,0
2016-11-10T02:47:26.933Z,0
2016-11-10T02:48:41.286Z,0
2016-11-10T02:49:57.304Z,0
2016-11-10T02:51:10.253Z,0
2016-11-10T02:52:25.691Z,0
2016-11-10T02:53:41.752Z,0
2016-11-10T02:54:57.961Z,0
2016-11-10T02:56:10.706Z,0
2016-11-10T02:57:25.434Z,0
2016-11-10T02:58:39.857Z,0
2016-11-10T02:59:54.821Z,0
2016-11-10T03:01:07.541Z,0
2016-11-10T03:02:21.350Z,0
2016-11-10T03:03:37.403Z,0
2016-11-10T03:04:53.644Z,0
2016-11-10T03:06:08.517Z,0
2016-11-10T03:07:24.926Z,0
2016-11-10T03:08:39.539Z,0
2016-11-10T03:09:55.911Z,0
2016-11-10T03:11:10.275Z,0
2016-11-10T03:12:25.927Z,0
2016-11-10T03:13:41.977Z,0
2016-11-10T03:14:56.843Z,0
2016-11-10T03:16:13.583Z,0
2016-11-10T03:17:30.026Z,0
2016-11-10T03:18:46.456Z,0
2016-11-10T03:20:02.481Z,0
2016-11-10T03:21:17.175Z,0
2016-11-10T03:22:32.958Z,0
2016-11-10T03:23:48.712Z,0
2016-11-10T03:25:03.367Z,0
2016-11-10T03:26:19.565Z,0
2016-11-10T03:27:34.974Z,0
2016-11-10T03:28:50.979Z,0
2016-11-10T03:30:06.459Z,0
2016-11-10T03:31:22.158Z,0
2016-11-10T03:32:37.269Z,0
2016-11-10T03:33:53.294Z,0
2016-11-10T03:35:09.308Z,0
2016-11-10T03:36:22.273Z,0
2016-11-10T03:37:36.505Z,0
2016-11-10T03:38:51.043Z,0
2016-11-10T03:40:07.444Z,0
2016-11-10T03:41:22.043Z,0
2016-11-10T03:42:36.958Z,0
2016-11-10T03:43:52.823Z,0
2016-11-10T03:45:09.225Z,0
2016-11-10T03:46:25.415Z,0
2016-11-10T03:47:41.402Z,0
2016-11-10T03:48:56.530Z,0
2016-11-10T03:50:09.706Z,0
2016-11-10T03:51:23.745Z,0
2016-11-10T03:52:37.796Z,0
2016-11-10T03:53:53.809Z,0
2016-11-10T03:55:08.586Z,0
2016-11-10T03:56:23.009Z,0
2016-11-10T03:57:39.459Z,0
2016-11-10T03:58:55.826Z,0
2016-11-10T04:00:10.562Z,0
2016-11-10T04:01:24.777Z,0
2016-11-10T04:02:39.758Z,0
2016-11-10T04:03:54.444Z,0
2016-11-10T04:05:09.200Z,0
2016-11-10T04:06:25.097Z,0
2016-11-10T04:07:39.625Z,0
2016-11-10T04:08:55.331Z,0
2016-11-10T04:10:08.086Z,0
2016-11-10T04:11:20.806Z,0
2016-11-10T04:12:37.006Z,0
2016-11-10T04:13:50.093Z,0
2016-11-10T04:15:06.610Z,0
2016-11-10T04:16:22.036Z,0
2016-11-10T04:17:37.516Z,0
2016-11-10T04:18:53.001Z,0
2016-11-10T04:20:09.018Z,0
2016-11-10T04:21:24.477Z,0
2016-11-10T04:22:40.820Z,0
2016-11-10T04:23:57.015Z,0
2016-11-10T04:25:11.580Z,0
2016-11-10T04:26:28.008Z,0
2016-11-10T04:27:43.548Z,0
2016-11-10T04:28:57.957Z,0
2016-11-10T04:30:13.621Z,0
2016-11-10T04:31:30.210Z,0
2016-11-10T04:32:44.415Z,0
2016-11-10T04:34:00.635Z,0
2016-11-10T04:35:16.480Z,0
2016-11-10T04:36:32.351Z,0
2016-11-10T04:37:48.072Z,0
2016-11-10T04:39:04.276Z,0
2016-11-10T04:40:18.644Z,0
2016-11-10T04:41:33.423Z,0
2016-11-10T04:42:49.292Z,0
2016-11-10T04:44:04.191Z,0
2016-11-10T04:45:19.826Z,0
2016-11-10T04:46:33.027Z,0
2016-11-10T04:47:49.379Z,0
2016-11-10T04:49:04.503Z,0
2016-11-10T04:50:19.318Z,0
2016-11-10T04:51:35.764Z,0
2016-11-10T04:52:50.577Z,0
2016-11-10T04:54:03.332Z,0
2016-11-10T04:55:17.379Z,0
2016-11-10T04:56:32.552Z,0
2016-11-10T04:57:44.078Z,0
2016-11-10T04:59:00.109Z,0
2016-11-10T05:00:11.569Z,0
2016-11-10T05:01:24.396Z,0
2016-11-10T05:02:37.640Z,0
2016-11-10T05:03:52.034Z,0
2016-11-10T05:05:07.127Z,0
2016-11-10T05:06:24.111Z,0
2016-11-10T05:07:38.716Z,0
2016-11-10T05:08:53.860Z,0
2016-11-10T05:10:10.499Z,0
2016-11-10T05:11:27.049Z,0
2016-11-10T05:12:40.002Z,0
2016-11-10T05:13:56.219Z,0
2016-11-10T05:15:12.446Z,0
2016-11-10T05:16:29.053Z,0
2016-11-10T05:17:45.471Z,0
2016-11-10T05:19:00.100Z,0
2016-11-10T05:20:14.515Z,0
2016-11-10T05:21:30.379Z,0
2016-11-10T05:22:46.399Z,0
2016-11-10T05:24:02.561Z,0
2016-11-10T05:25:18.991Z,0
2016-11-10T05:26:33.625Z,0
2016-11-10T05:27:48.903Z,0
2016-11-10T05:29:03.389Z,0
2016-11-10T05:30:18.194Z,0
2016-11-10T05:31:33.130Z,0
2016-11-10T05:32:48.801Z,0
2016-11-10T05:34:03.083Z,0
2016-11-10T05:35:17.656Z,0
2016-11-10T05:36:32.071Z,0
2016-11-10T05:37:48.295Z,0
2016-11-10T05:39:04.110Z,0
2016-11-10T05:40:20.203Z,0
2016-11-10T05:41:35.128Z,0
2016-11-10T05:42:48.476Z,0
2016-11-10T05:44:04.332Z,0
2016-11-10T05:45:18.741Z,0
2016-11-10T05:46:34.758Z,0
2016-11-10T05:47:50.961Z,0
2016-11-10T05:49:05.679Z,0
2016-11-10T05:50:21.570Z,0
2016-11-10T05:51:36.114Z,0
2016-11-10T05:52:50.523Z,0
2016-11-10T05:54:05.486Z,0
2016-11-10T05:55:20.264Z,0
2016-11-10T05:56:35.080Z,0
2016-11-10T05:57:49.973Z,0
2016-11-10T05:59:04.188Z,0
2016-11-10T06:00:20.948Z,0
2016-11-10T06:01:35.514Z,0
2016-11-10T06:02:51.749Z,0
2016-11-10T06:04:06.688Z,0
2016-11-10T06:05:22.891Z,0
2016-11-10T06:06:38.715Z,0
2016-11-10T06:07:55.361Z,0
2016-11-10T06:09:11.629Z,0
2016-11-10T06:10:24.764Z,0
2016-11-10T06:11:38.912Z,0
2016-11-10T06:12:55.526Z,0
2016-11-10T06:14:11.299Z,0
2016-11-10T06:15:25.938Z,0
2016-11-10T06:16:37.818Z,0
2016-11-10T06:17:52.034Z,0
2016-11-10T06:19:07.843Z,0
2016-11-10T06:20:20.773Z,0
2016-11-10T06:21:35.714Z,0
2016-11-10T06:22:51.601Z,0
2016-11-10T06:24:07.990Z,0
2016-11-10T06:25:23.677Z,0
2016-11-10T06:26:39.537Z,0
2016-11-10T06:27:55.404Z,0
2016-11-10T06:29:11.919Z,0
2016-11-10T06:30:26.645Z,0
2016-11-10T06:31:42.805Z,0
2016-11-10T06:32:56.986Z,0
2016-11-10T06:34:12.486Z,0
2016-11-10T06:35:28.448Z,0
2016-11-10T06:36:44.152Z,0
2016-11-10T06:37:59.810Z,0
2016-11-10T06:39:15.157Z,0
2016-11-10T06:40:29.581Z,0
2016-11-10T06:41:44.457Z,0
2016-11-10T06:43:00.293Z,0
2016-11-10T06:44:16.433Z,0
2016-11-10T06:45:31.351Z,0
2016-11-10T06:46:47.393Z,0
2016-11-10T06:48:03.847Z,0
2016-11-10T06:49:18.060Z,5
2016-11-10T06:50:33.541Z,5
2016-11-10T06:51:48.047Z,5
2016-11-10T06:53:04.275Z,5
2016-11-10T06:54:19.978Z,5
2016-11-10T06:55:34.727Z,5
2016-11-10T06:56:51.022Z,5
2016-11-10T06:58:07.019Z,5
2016-11-10T06:59:20.373Z,10
2016-11-10T07:00:36.783Z,10
2016-11-10T07:01:53.481Z,10
2016-11-10T07:03:09.827Z,10
2016-11-10T07:04:22.825Z,10
2016-11-10T07:05:37.586Z,10
2016-11-10T07:06:53.706Z,10
2016-11-10T07:08:07.182Z,10
2016-11-10T07:09:21.395Z,10
2016-11-10T07:10:37.045Z,5
2016-11-10T07:11:53.548Z,5
2016-11-10T07:13:08.339Z,10
2016-11-10T07:14:22.587Z,10
2016-11-10T07:15:36.681Z,10
2016-11-10T07:16:52.961Z,15
2016-11-10T07:18:09.931Z,15
2016-11-10T07:19:26.130Z,15
2016-11-10T07:20:41.995Z,20
2016-11-10T07:21:56.192Z,15
2016-11-10T07:23:12.442Z,15
2016-11-10T07:24:28.492Z,15
2016-11-10T07:25:44.512Z,15
2016-11-10T07:27:00.895Z,15
2016-11-10T07:28:16.508Z,15
2016-11-10T07:29:32.828Z,15
2016-11-10T07:30:47.357Z,10
2016-11-10T07:32:02.856Z,10
2016-11-10T07:33:18.514Z,10
2016-11-10T07:34:34.504Z,5
2016-11-10T07:35:48.754Z,5
2016-11-10T07:37:05.019Z,5
2016-11-10T07:38:19.572Z,10
2016-11-10T07:39:35.577Z,10
2016-11-10T07:40:52.161Z,10
2016-11-10T07:42:07.700Z,10
2016-11-10T07:43:21.048Z,10
2016-11-10T07:44:37.445Z,15
2016-11-10T07:45:53.340Z,15
2016-11-10T07:47:07.830Z,15
2016-11-10T07:48:23.689Z,15
2016-11-10T07:49:39.639Z,15
2016-11-10T07:50:54.282Z,15
2016-11-10T07:52:07.497Z,15
2016-11-10T07:53:23.966Z,15
2016-11-10T07:54:40.029Z,20
2016-11-10T07:55:55.174Z,20
2016-11-10T07:57:11.051Z,20
2016-11-10T07:58:27.539Z,25
2016-11-10T07:59:41.054Z,25
2016-11-10T08:00:57.449Z,25
2016-11-10T08:02:11.811Z,25
2016-11-10T08:03:27.915Z,25
2016-11-10T08:04:43.594Z,25
2016-11-10T08:05:59.482Z,25
2016-11-10T08:07:12.532Z,25
2016-11-10T08:08:28.387Z,25
2016-11-10T08:09:44.115Z,30
2016-11-10T08:10:58.286Z,25
2016-11-10T08:12:14.907Z,25
2016-11-10T08:13:31.240Z,30
2016-11-10T08:14:46.997Z,30
2016-11-10T08:16:01.417Z,35
2016-11-10T08:17:15.844Z,35
2016-11-10T08:18:31.040Z,35
2016-11-10T08:19:47.278Z,40
2016-11-10T08:21:03.025Z,45
2016-11-10T08:22:19.129Z,50
2016-11-10T08:23:35.185Z,55
2016-11-10T08:24:51.753Z,65
2016-11-10T08:26:08.510Z,70
2016-11-10T08:27:24.520Z,70
2016-11-10T08:28:37.847Z,75
2016-11-10T08:29:51.124Z,75
2016-11-10T08:31:05.665Z,75
2016-11-10T08:32:21.994Z,80
2016-11-10T08:33:38.847Z,80
2016-11-10T08:34:54.862Z,80
2016-11-10T08:36:09.836Z,75
2016-11-10T08:37:24.444Z,75
2016-11-10T08:38:40.447Z,75
2016-11-10T08:39:56.570Z,80
2016-11-10T08:41:09.179Z,90
2016-11-10T08:42:25.388Z,95
2016-11-10T08:43:41.408Z,110
2016-11-10T08:44:57.075Z,115
2016-11-10T08:46:13.459Z,120
2016-11-10T08:47:29.400Z,115
2016-11-10T08:48:42.567Z,105
2016-11-10T08:49:59.311Z,90
2016-11-10T08:51:15.916Z,90
2016-11-10T08:52:32.243Z,85
2016-11-10T08:53:48.318Z,90
2016-11-10T08:55:04.564Z,100
2016-11-10T08:56:19.514Z,100
2016-11-10T08:57:35.561Z,95
2016-11-10T08:58:51.971Z,85
2016-11-10T09:00:05.834Z,85
2016-11-10T09:01:21.691Z,80
2016-11-10T09:02:36.933Z,75
2016-11-10T09:03:53.551Z,75
2016-11-10T09:05:08.339Z,75
2016-11-10T09:06:23.262Z,80
2016-11-10T09:07:39.449Z,85
2016-11-10T09:08:55.110Z,90
2016-11-10T09:10:11.522Z,90
2016-11-10T09:11:24.365Z,95
2016-11-10T09:12:38.587Z,100
2016-11-10T09:13:52.139Z,100
2016-11-10T09:15:08.165Z,105
2016-11-10T09:16:24.004Z,110
2016-11-10T09:17:38.251Z,110
2016-11-10T09:18:54.764Z,115
2016-11-10T09:20:10.945Z,120
2016-11-10T09:21:26.612Z,120
2016-11-10T09:22:39.760Z,125
2016-11-10T09:23:55.824Z,135
2016-11-10T09:25:08.843Z,145
2016-11-10T09:26:21.826Z,150
2016-11-10T09:27:38.502Z,155
2016-11-10T09:28:51.913Z,160
2016-11-10T09:30:05.732Z,165
2016-11-10T09:31:20.281Z,175
2016-11-10T09:32:36.484Z,190
2016-11-10T09:33:52.503Z,200
2016-11-10T09:35:07.484Z,205
2016-11-10T09:36:23.318Z,200
2016-11-10T09:37:39.711Z,195
2016-11-10T09:38:56.332Z,175
2016-11-10T09:40:12.408Z,155
2016-11-10T09:41:26.785Z,140
2016-11-10T09:42:41.049Z,130
2016-11-10T09:43:55.642Z,125
2016-11-10T09:45:10.151Z,115
2016-11-10T09:46:25.292Z,115
2016-11-10T09:47:40.809Z,115
2016-11-10T09:48:56.838Z,110
2016-11-10T09:50:13.228Z,110
2016-11-10T09:51:27.470Z,105
2016-11-10T09:52:43.245Z,105
2016-11-10T09:53:58.897Z,105
2016-11-10T09:55:11.923Z,110
2016-11-10T09:56:28.452Z,115
2016-11-10T09:57:44.381Z,125
2016-11-10T09:59:00.831Z,135
2016-11-10T10:00:16.696Z,145
2016-11-10T10:01:29.658Z,145
2016-11-10T10:02:43.833Z,130
2016-11-10T10:03:58.639Z,105
2016-11-10T10:05:14.865Z,90
2016-11-10T10:06:30.656Z,85
2016-11-10T10:07:45.423Z,85
2016-11-10T10:09:01.457Z,80
2016-11-10T10:10:17.133Z,75
2016-11-10T10:11:32.193Z,75
2016-11-10T10:12:48.418Z,75
2016-11-10T10:14:04.802Z,75
2016-11-10T10:15:19.470Z,75
2016-11-10T10:16:33.489Z,75
2016-11-10T10:17:44.807Z,85
2016-11-10T10:18:59.229Z,90
2016-11-10T10:20:12.402Z,85
2016-11-10T10:21:27.883Z,85
2016-11-10T10:22:42.486Z,85
2016-11-10T10:23:58.135Z,85
2016-11-10T10:25:12.728Z,85
2016-11-10T10:26:27.323Z,80
2016-11-10T10:27:41.548Z,75
2016-11-10T10:28:56.105Z,75
2016-11-10T10:30:10.889Z,70
2016-11-10T10:31:24.180Z,70
2016-11-10T10:32:40.284Z,70
2016-11-10T10:33:54.708Z,75
2016-11-10T10:35:08.938Z,75
2016-11-10T10:36:24.791Z,80
2016-11-10T10:37:36.150Z,85
2016-11-10T10:38:51.165Z,90
2016-11-10T10:40:05.872Z,90
2016-11-10T10:41:20.095Z,85
2016-11-10T10:42:35.082Z,85
2016-11-10T10:43:50.782Z,90
2016-11-10T10:45:03.551Z,95
2016-11-10T10:46:19.728Z,105
2016-11-10T10:47:34.880Z,110
2016-11-10T10:48:51.133Z,115
2016-11-10T10:50:04.087Z,120
2016-11-10T10:51:18.607Z,120
2016-11-10T10:52:34.254Z,115
2016-11-10T10:53:48.982Z,115
2016-11-10T10:55:05.226Z,120
2016-11-10T10:56:18.031Z,115
2016-11-10T10:57:32.208Z,110
2016-11-10T10:58:47.019Z,105
2016-11-10T11:00:03.048Z,105
2016-11-10T11:01:19.237Z,100
2016-11-10T11:02:34.048Z,95
2016-11-10T11:03:48.591Z,95
2016-11-10T11:05:03.914Z,95
2016-11-10T11:06:20.006Z,105
2016-11-10T11:07:36.519Z,120
2016-11-10T11:08:52.748Z,140
2016-11-10T11:10:06.019Z,150
2016-11-10T11:11:20.589Z,145
2016-11-10T11:12:36.247Z,135
2016-11-10T11:13:50.458Z,130
2016-11-10T11:15:06.106Z,130
2016-11-10T11:16:18.893Z,150
2016-11-10T11:17:32.032Z,180
2016-11-10T11:18:44.082Z,205
2016-11-10T11:19:57.350Z,225
2016-11-10T11:21:10.912Z,225
2016-11-10T11:22:27.125Z,220
2016-11-10T11:23:42.844Z,215
2016-11-10T11:24:56.210Z,210
2016-11-10T11:26:12.627Z,215
2016-11-10T11:27:26.858Z,205
2016-11-10T11:28:42.944Z,190
2016-11-10T11:29:59.511Z,175
2016-11-10T11:31:14.144Z,170
2016-11-10T11:32:28.400Z,180
2016-11-10T11:33:43.014Z,185
2016-11-10T11:34:59.578Z,185
2016-11-10T11:36:14.420Z,180
2016-11-10T11:37:27.945Z,175
2016-11-10T11:38:43.102Z,165
2016-11-10T11:39:57.173Z,155
2016-11-10T11:41:12.064Z,150
2016-11-10T11:42:27.383Z,140
2016-11-10T11:43:42.340Z,135
2016-11-10T11:44:58.609Z,135
2016-11-10T11:46:15.290Z,145
2016-11-10T11:47:30.730Z,155
2016-11-10T11:48:46.721Z,140
2016-11-10T11:50:02.840Z,125
2016-11-10T11:51:18.669Z,110
2016-11-10T11:52:34.823Z,100
2016-11-10T11:53:49.232Z,95
2016-11-10T11:55:04.730Z,95
2016-11-10T11:56:20.205Z,85
2016-11-10T11:57:35.081Z,85
2016-11-10T11:58:49.656Z,80
2016-11-10T12:00:05.503Z,80
2016-11-10T12:01:21.366Z,80
2016-11-10T12:02:35.787Z,80
2016-11-10T12:03:52.501Z,80
2016-11-10T12:05:09.077Z,80
2016-11-10T12:06:25.266Z,80
2016-11-10T12:07:40.842Z,85
2016-11-10T12:08:55.283Z,85
2016-11-10T12:10:11.064Z,85
2016-11-10T12:11:26.609Z,80
2016-11-10T12:12:42.623Z,80
2016-11-10T12:13:58.662Z,80
2016-11-10T12:15:13.090Z,75
2016-11-10T12:16:29.624Z,75
2016-11-10T12:17:43.899Z,75
2016-11-10T12:18:59.757Z,70
2016-11-10T12:20:15.552Z,65
2016-11-10T12:21:30.292Z,60
2016-11-10T12:22:45.948Z,60
2016-11-10T12:24:00.403Z,65
2016-11-10T12:25:14.139Z,70
2016-11-10T12:26:28.983Z,75
2016-11-10T12:27:43.251Z,80
2016-11-10T12:28:58.925Z,90
2016-11-10T12:30:11.927Z,100
2016-11-10T12:31:23.906Z,105
2016-11-10T12:32:40.095Z,120
2016-11-10T12:33:56.024Z,130
2016-11-10T12:35:10.456Z,140
2016-11-10T12:36:26.497Z,140
2016-11-10T12:37:41.077Z,145
2016-11-10T12:38:56.931Z,140
2016-11-10T12:40:12.628Z,130
2016-11-10T12:41:29.212Z,135
2016-11-10T12:42:45.029Z,150
2016-11-10T12:44:01.436Z,155
2016-11-10T12:45:17.082Z,150
2016-11-10T12:46:32.313Z,135
2016-11-10T12:47:48.343Z,125
2016-11-10T12:49:02.612Z,110
2016-11-10T12:50:16.266Z,100
2016-11-10T12:51:32.295Z,95
2016-11-10T12:52:46.744Z,90
2016-11-10T12:54:03.007Z,90
2016-11-10T12:55:19.263Z,90
2016-11-10T12:56:35.350Z,90
2016-11-10T12:57:51.729Z,85
2016-11-10T12:59:06.595Z,95
2016-11-10T13:00:22.753Z,105
2016-11-10T13:01:38.866Z,105
2016-11-10T13:02:54.520Z,105
2016-11-10T13:04:09.084Z,105
2016-11-10T13:05:25.540Z,110
2016-11-10T13:06:41.905Z,115
2016-11-10T13:07:58.342Z,115
2016-11-10T13:09:14.203Z,100
2016-11-10T13:10:29.696Z,85
2016-11-10T13:11:45.783Z,75
2016-11-10T13:13:01.477Z,75
2016-11-10T13:14:16.059Z,75
2016-11-10T13:15:30.658Z,75
2016-11-10T13:16:46.529Z,65
2016-11-10T13:18:01.668Z,65
2016-11-10T13:19:17.505Z,60
2016-11-10T13:20:33.348Z,60
2016-11-10T13:21:49.052Z,60
2016-11-10T13:23:03.133Z,60
2016-11-10T13:24:19.174Z,60
2016-11-10T13:25:33.708Z,55
2016-11-10T13:26:50.257Z,60
2016-11-10T13:28:06.282Z,60
2016-11-10T13:29:21.045Z,70
2016-11-10T13:30:37.298Z,75
2016-11-10T13:31:53.504Z,80
2016-11-10T13:33:07.703Z,80
2016-11-10T13:34:24.431Z,80
2016-11-10T13:35:40.820Z,80
2016-11-10T13:36:57.224Z,90
2016-11-10T13:38:13.473Z,95
2016-11-10T13:39:28.250Z,90
2016-11-10T13:40:44.264Z,85
2016-11-10T13:42:00.842Z,85
2016-11-10T13:43:16.942Z,80
2016-11-10T13:44:32.794Z,75
2016-11-10T13:45:47.356Z,80
2016-11-10T13:47:02.347Z,90
2016-11-10T13:48:18.293Z,95
2016-11-10T13:49:31.448Z,100
2016-11-10T13:50:48.011Z,100
2016-11-10T13:52:02.610Z,105
2016-11-10T13:53:18.619Z,115
2016-11-10T13:54:35.028Z,115
2016-11-10T13:55:49.438Z,120
2016-11-10T13:57:02.991Z,110
2016-11-10T13:58:19.005Z,115
2016-11-10T13:59:35.222Z,120
2016-11-10T14:00:51.442Z,130
2016-11-10T14:02:05.904Z,130
2016-11-10T14:03:21.588Z,110
2016-11-10T14:04:37.247Z,105
2016-11-10T14:05:51.646Z,100
2016-11-10T14:07:05.263Z,100
2016-11-10T14:08:19.346Z,90
2016-11-10T14:09:34.339Z,95
2016-11-10T14:10:47.786Z,100
2016-11-10T14:12:02.575Z,100
2016-11-10T14:13:18.619Z,105
2016-11-10T14:14:32.841Z,110
2016-11-10T14:15:49.369Z,115
2016-11-10T14:17:03.558Z,110
2016-11-10T14:18:19.767Z,110
2016-11-10T14:19:35.716Z,100
2016-11-10T14:20:51.402Z,95
2016-11-10T14:22:04.360Z,100
2016-11-10T14:23:17.482Z,100
2016-11-10T14:24:32.182Z,100
2016-11-10T14:25:48.332Z,105
2016-11-10T14:27:03.123Z,95
2016-11-10T14:28:19.879Z,75
2016-11-10T14:29:34.336Z,65
2016-11-10T14:30:50.894Z,65
2016-11-10T14:32:06.562Z,65
2016-11-10T14:33:19.277Z,60
2016-11-10T14:34:35.340Z,55
2016-11-10T14:35:49.597Z,50
2016-11-10T14:37:04.555Z,45
2016-11-10T14:38:18.773Z,45
2016-11-10T14:39:33.401Z,45
2016-11-10T14:40:49.417Z,40
2016-11-10T14:42:03.824Z,40
2016-11-10T14:43:17.184Z,45
2016-11-10T14:44:32.864Z,50
2016-11-10T14:45:48.541Z,55
2016-11-10T14:47:04.662Z,55
2016-11-10T14:48:19.755Z,50
2016-11-10T14:49:35.277Z,45
2016-11-10T14:50:50.363Z,50
2016-11-10T14:52:06.386Z,55
2016-11-10T14:53:22.394Z,45
2016-11-10T14:54:38.326Z,40
2016-11-10T14:55:52.318Z,40
2016-11-10T14:57:06.868Z,40
2016-11-10T14:58:21.148Z,35
2016-11-10T14:59:37.174Z,35
2016-11-10T15:00:51.862Z,35
2016-11-10T15:02:07.958Z,40
2016-11-10T15:03:22.504Z,40
2016-11-10T15:04:35.891Z,40
2016-11-10T15:05:49.391Z,40
2016-11-10T15:07:04.150Z,35
2016-11-10T15:08:18.565Z,35
2016-11-10T15:09:34.982Z,30
2016-11-10T15:10:49.647Z,25
2016-11-10T15:12:05.764Z,20
2016-11-10T15:13:21.839Z,15
2016-11-10T15:14:37.536Z,15
2016-11-10T15:15:52.331Z,15
2016-11-10T15:17:08.009Z,15
2016-11-10T15:18:24.131Z,15
2016-11-10T15:19:38.395Z,15
2016-11-10T15:20:54.288Z,15
2016-11-10T15:22:09.947Z,15
2016-11-10T15:23:23.411Z,10
2016-11-10T15:24:36.786Z,10
2016-11-10T15:25:52.319Z,10
2016-11-10T15:27:07.820Z,10
2016-11-10T15:28:24.410Z,5
2016-11-10T15:29:40.608Z,5
2016-11-10T15:30:54.958Z,5
2016-11-10T15:32:10.486Z,5
2016-11-10T15:33:22.438Z,5
2016-11-10T15:34:38.197Z,5
2016-11-10T15:35:52.598Z,5
2016-11-10T15:37:06.990Z,5
2016-11-10T15:38:22.661Z,0
2016-11-10T15:39:37.183Z,0
2016-11-10T15:40:53.377Z,0
2016-11-10T15:42:06.391Z,0
2016-11-10T15:43:22.604Z,0
2016-11-10T15:44:35.896Z,0
2016-11-10T15:45:49.937Z,0
2016-11-10T15:47:06.196Z,0
2016-11-10T15:48:21.437Z,0
2016-11-10T15:49:36.762Z,0
2016-11-10T15:50:52.077Z,0
2016-11-10T15:52:07.732Z,0
2016-11-10T15:53:22.611Z,0
2016-11-10T15:54:38.819Z,0
2016-11-10T15:55:53.259Z,0
2016-11-10T15:57:09.298Z,0
2016-11-10T15:58:25.694Z,0
2016-11-10T15:59:42.117Z,0
2016-11-10T16:00:57.791Z,0
2016-11-10T16:02:12.546Z,0
2016-11-10T16:03:27.267Z,0
2016-11-10T16:04:41.484Z,0
2016-11-10T16:05:57.348Z,0
2016-11-10T16:07:14.127Z,0
2016-11-10T16:08:28.902Z,0
2016-11-10T16:09:43.345Z,0
2016-11-10T16:10:59.582Z,0
2016-11-10T16:12:15.853Z,0
2016-11-10T16:13:32.164Z,0
2016-11-10T16:14:48.209Z,0
2016-11-10T16:16:04.415Z,0
2016-11-10T16:17:20.636Z,0
2016-11-10T16:18:35.248Z,0
2016-11-10T16:19:49.825Z,0
2016-11-10T16:21:05.637Z,0
2016-11-10T16:22:21.142Z,0
2016-11-10T16:23:36.991Z,0
2016-11-10T16:24:53.050Z,0
2016-11-10T16:26:08.309Z,0
2016-11-10T16:27:23.770Z,0
2016-11-10T16:28:40.405Z,0
2016-11-10T16:29:56.340Z,0
2016-11-10T16:31:09.899Z,0
2016-11-10T16:32:24.508Z,0
2016-11-10T16:33:39.664Z,0
2016-11-10T16:34:55.332Z,0
2016-11-10T16:36:09.920Z,0
2016-11-10T16:37:23.084Z,0
2016-11-10T16:38:35.090Z,0
2016-11-10T16:39:50.603Z,0
2016-11-10T16:41:06.097Z,0
2016-11-10T16:42:22.116Z,0
2016-11-10T16:43:38.299Z,0
2016-11-10T16:44:53.029Z,0
2016-11-10T16:46:07.586Z,0
2016-11-10T16:47:22.014Z,0
2016-11-10T16:48:36.230Z,0
2016-11-10T16:49:50.821Z,0
2016-11-10T16:51:03.799Z,0
2016-11-10T16:52:19.980Z,0
2016-11-10T16:53:35.848Z,0
2016-11-10T16:54:51.759Z,0
2016-11-10T16:56:08.012Z,0
2016-11-10T16:57:23.935Z,0
2016-11-10T16:58:40.137Z,0
2016-11-10T16:59:54.451Z,0
2016-11-10T17:01:08.817Z,0
2016-11-10T17:02:23.421Z,0
2016-11-10T17:03:38.190Z,0
2016-11-10T17:04:54.421Z,0
2016-11-10T17:06:11.019Z,0
2016-11-10T17:07:24.270Z,0
2016-11-10T17:08:40.137Z,0
2016-11-10T17:09:54.925Z,0
2016-11-10T17:11:11.161Z,0
2016-11-10T17:12:27.305Z,0
2016-11-10T17:13:42.063Z,0
2016-11-10T17:14:58.268Z,0
2016-11-10T17:16:12.489Z,0
2016-11-10T17:17:28.150Z,0
2016-11-10T17:18:42.789Z,0
2016-11-10T17:19:57.663Z,0
2016-11-10T17:21:10.813Z,0
2016-11-10T17:22:27.594Z,0
2016-11-10T17:23:43.753Z,0
2016-11-10T17:24:59.572Z,0
2016-11-10T17:26:14.868Z,0
2016-11-10T17:27:28.046Z,0
2016-11-10T17:28:42.690Z,0
2016-11-10T17:29:58.804Z,0
2016-11-10T17:31:10.219Z,0
2016-11-10T17:32:23.555Z,0
2016-11-10T17:33:37.632Z,0
2016-11-10T17:34:52.600Z,0
2016-11-10T17:36:08.492Z,0
2016-11-10T17:37:22.919Z,0
2016-11-10T17:38:38.815Z,0
2016-11-10T17:39:54.691Z,0
2016-11-10T17:41:10.358Z,0
2016-11-10T17:42:26.046Z,0
2016-11-10T17:43:42.074Z,0
2016-11-10T17:44:55.049Z,0
2016-11-10T17:46:09.232Z,0
2016-11-10T17:47:22.138Z,0
2016-11-10T17:48:39.120Z,0
2016-11-10T17:49:53.911Z,0
2016-11-10T17:51:09.572Z,0
2016-11-10T17:52:25.714Z,0
2016-11-10T17:53:41.199Z,0
2016-11-10T17:54:55.555Z,0
2016-11-10T17:56:10.192Z,0
2016-11-10T17:57:24.812Z,0
2016-11-10T17:58:39.866Z,0
2016-11-10T17:59:55.738Z,0
2016-11-10T18:01:11.785Z,0
2016-11-10T18:02:28.101Z,0
2016-11-10T18:03:42.895Z,0
2016-11-10T18:04:57.068Z,0
2016-11-10T18:06:12.525Z,0